sensor_id;sensor_type;location;lat;lon;timestamp;pressure;altitude;pressure_sealevel;temperature;humidity
22181;BME280;11256;50.830;12.834;2023-05-09T00:03:49;98188.94;;;11.97;46.08
22181;BME280;11256;50.830;12.834;2023-05-09T00:08:51;98194.94;;;11.99;45.37
22181;BME280;11256;50.830;12.834;2023-05-09T00:13:51;98186.81;;;11.94;44.39
22181;BME280;11256;50.830;12.834;2023-05-09T00:18:52;98188.97;;;11.92;44.69
22181;BME280;11256;50.830;12.834;2023-05-09T00:23:52;98192.50;;;11.87;45.01
22181;BME280;11256;50.830;12.834;2023-05-09T00:28:53;98186.81;;;11.84;44.88
22181;BME280;11256;50.830;12.834;2023-05-09T00:33:53;98182.50;;;11.83;44.72
22181;BME280;11256;50.830;12.834;2023-05-09T00:38:53;98181.13;;;11.80;44.43
22181;BME280;11256;50.830;12.834;2023-05-09T00:43:54;98165.94;;;11.74;44.70
22181;BME280;11256;50.830;12.834;2023-05-09T00:48:54;98161.88;;;11.72;44.44
22181;BME280;11256;50.830;12.834;2023-05-09T00:53:55;98154.53;;;11.67;44.32
22181;BME280;11256;50.830;12.834;2023-05-09T00:58:55;98158.63;;;11.60;45.57
22181;BME280;11256;50.830;12.834;2023-05-09T01:03:56;98152.13;;;11.46;46.17
22181;BME280;11256;50.830;12.834;2023-05-09T01:09:08;98148.91;;;11.34;45.71
22181;BME280;11256;50.830;12.834;2023-05-09T01:14:31;98144.56;;;11.33;45.21
22181;BME280;11256;50.830;12.834;2023-05-09T01:19:59;98147.81;;;11.20;46.92
22181;BME280;11256;50.830;12.834;2023-05-09T01:25:05;98133.75;;;11.08;46.68
22181;BME280;11256;50.830;12.834;2023-05-09T01:30:11;98131.03;;;10.98;47.78
22181;BME280;11256;50.830;12.834;2023-05-09T01:35:13;98134.81;;;10.82;47.18
22181;BME280;11256;50.830;12.834;2023-05-09T01:40:16;98151.63;;;10.89;46.74
22181;BME280;11256;50.830;12.834;2023-05-09T01:45:19;98145.13;;;10.80;47.21
22181;BME280;11256;50.830;12.834;2023-05-09T01:50:21;98140.78;;;10.74;47.59
22181;BME280;11256;50.830;12.834;2023-05-09T01:55:25;98136.16;;;10.64;47.19
22181;BME280;11256;50.830;12.834;2023-05-09T02:00:26;98135.88;;;10.46;48.27
22181;BME280;11256;50.830;12.834;2023-05-09T02:05:28;98136.41;;;10.48;48.98
22181;BME280;11256;50.830;12.834;2023-05-09T02:10:29;98140.19;;;10.32;49.32
22181;BME280;11256;50.830;12.834;2023-05-09T02:15:29;98131.53;;;10.30;49.00
22181;BME280;11256;50.830;12.834;2023-05-09T02:20:30;98118.75;;;10.25;48.33
22181;BME280;11256;50.830;12.834;2023-05-09T02:25:35;98121.19;;;10.22;48.63
22181;BME280;11256;50.830;12.834;2023-05-09T02:30:41;98119.28;;;10.12;48.64
22181;BME280;11256;50.830;12.834;2023-05-09T02:35:43;98109.78;;;10.10;48.42
22181;BME280;11256;50.830;12.834;2023-05-09T02:40:46;98101.13;;;10.08;49.03
22181;BME280;11256;50.830;12.834;2023-05-09T02:45:46;98111.91;;;9.98;50.08
22181;BME280;11256;50.830;12.834;2023-05-09T02:50:47;98110.31;;;10.07;48.55
22181;BME280;11256;50.830;12.834;2023-05-09T02:55:47;98099.16;;;10.03;48.30
22181;BME280;11256;50.830;12.834;2023-05-09T03:00:47;98092.44;;;10.06;47.79
22181;BME280;11256;50.830;12.834;2023-05-09T03:05:48;98092.41;;;10.01;47.79
22181;BME280;11256;50.830;12.834;2023-05-09T03:10:48;98097.00;;;9.95;48.28
22181;BME280;11256;50.830;12.834;2023-05-09T03:15:50;98088.59;;;9.87;48.68
22181;BME280;11256;50.830;12.834;2023-05-09T03:20:51;98083.63;;;9.74;49.57
22181;BME280;11256;50.830;12.834;2023-05-09T03:25:52;98077.41;;;9.63;50.41
22181;BME280;11256;50.830;12.834;2023-05-09T03:30:53;98085.44;;;9.48;51.23
22181;BME280;11256;50.830;12.834;2023-05-09T03:35:56;98068.88;;;9.35;51.15
22181;BME280;11256;50.830;12.834;2023-05-09T03:40:57;98059.66;;;9.31;50.29
22181;BME280;11256;50.830;12.834;2023-05-09T03:45:59;98073.22;;;9.41;49.37
22181;BME280;11256;50.830;12.834;2023-05-09T03:51:00;98072.66;;;9.34;50.40
22181;BME280;11256;50.830;12.834;2023-05-09T03:56:04;98071.34;;;9.41;49.41
22181;BME280;11256;50.830;12.834;2023-05-09T04:01:10;98074.84;;;9.42;50.65
22181;BME280;11256;50.830;12.834;2023-05-09T04:06:11;98069.41;;;9.32;50.92
22181;BME280;11256;50.830;12.834;2023-05-09T04:11:16;98075.31;;;9.29;51.17
22181;BME280;11256;50.830;12.834;2023-05-09T04:16:19;98078.56;;;9.31;49.64
22181;BME280;11256;50.830;12.834;2023-05-09T04:21:19;98071.03;;;9.33;49.96
22181;BME280;11256;50.830;12.834;2023-05-09T04:26:23;98069.75;;;9.45;51.42
22181;BME280;11256;50.830;12.834;2023-05-09T04:31:26;98072.53;;;9.70;50.49
22181;BME280;11256;50.830;12.834;2023-05-09T04:36:27;98059.88;;;9.96;50.93
22181;BME280;11256;50.830;12.834;2023-05-09T04:41:30;98062.44;;;10.37;50.68
22181;BME280;11256;50.830;12.834;2023-05-09T04:46:31;98053.22;;;10.73;50.72
22181;BME280;11256;50.830;12.834;2023-05-09T04:51:31;98048.06;;;10.82;50.23
22181;BME280;11256;50.830;12.834;2023-05-09T04:56:32;98048.56;;;11.09;49.45
22181;BME280;11256;50.830;12.834;2023-05-09T05:01:34;98046.91;;;11.28;49.94
22181;BME280;11256;50.830;12.834;2023-05-09T05:06:35;98041.47;;;11.28;49.45
22181;BME280;11256;50.830;12.834;2023-05-09T05:11:35;98042.78;;;11.35;48.95
22181;BME280;11256;50.830;12.834;2023-05-09T05:16:37;98040.28;;;11.54;49.57
22181;BME280;11256;50.830;12.834;2023-05-09T05:21:38;98047.28;;;11.75;49.12
22181;BME280;11256;50.830;12.834;2023-05-09T05:26:39;98043.09;;;11.97;48.64
22181;BME280;11256;50.830;12.834;2023-05-09T05:31:39;98034.44;;;12.34;48.44
22181;BME280;11256;50.830;12.834;2023-05-09T05:36:40;98033.44;;;12.58;47.39
22181;BME280;11256;50.830;12.834;2023-05-09T05:41:40;98030.25;;;13.08;48.83
22181;BME280;11256;50.830;12.834;2023-05-09T05:46:41;98023.44;;;13.58;46.97
22181;BME280;11256;50.830;12.834;2023-05-09T05:51:43;98025.78;;;13.88;46.57
22181;BME280;11256;50.830;12.834;2023-05-09T05:56:46;98017.19;;;14.55;45.59
22181;BME280;11256;50.830;12.834;2023-05-09T06:01:47;98013.69;;;15.13;42.83
22181;BME280;11256;50.830;12.834;2023-05-09T06:06:48;98013.50;;;15.91;43.69
22181;BME280;11256;50.830;12.834;2023-05-09T06:11:48;98005.22;;;16.97;41.08
22181;BME280;11256;50.830;12.834;2023-05-09T06:16:48;97995.09;;;17.76;39.23
22181;BME280;11256;50.830;12.834;2023-05-09T06:21:49;97995.84;;;18.41;39.37
22181;BME280;11256;50.830;12.834;2023-05-09T06:26:49;97983.38;;;18.86;36.20
22181;BME280;11256;50.830;12.834;2023-05-09T06:31:50;97973.09;;;19.29;37.30
22181;BME280;11256;50.830;12.834;2023-05-09T06:36:50;97981.84;;;19.89;34.18
22181;BME280;11256;50.830;12.834;2023-05-09T06:41:50;97968.41;;;20.37;34.29
22181;BME280;11256;50.830;12.834;2023-05-09T06:46:57;97971.75;;;20.63;32.91
22181;BME280;11256;50.830;12.834;2023-05-09T06:51:58;97955.41;;;20.78;32.95
22181;BME280;11256;50.830;12.834;2023-05-09T06:56:58;97948.94;;;20.95;33.63
22181;BME280;11256;50.830;12.834;2023-05-09T07:01:59;97944.34;;;20.99;33.84
22181;BME280;11256;50.830;12.834;2023-05-09T07:06:59;97940.03;;;21.34;31.71
22181;BME280;11256;50.830;12.834;2023-05-09T07:12:00;97945.47;;;22.30;32.56
22181;BME280;11256;50.830;12.834;2023-05-09T07:17:00;97931.09;;;22.64;32.37
22181;BME280;11256;50.830;12.834;2023-05-09T07:22:01;97917.34;;;23.88;34.61
22181;BME280;11256;50.830;12.834;2023-05-09T07:27:02;97919.41;;;24.82;33.75
22181;BME280;11256;50.830;12.834;2023-05-09T07:32:03;97912.22;;;25.68;31.82
22181;BME280;11256;50.830;12.834;2023-05-09T07:37:03;97899.84;;;26.14;32.01
22181;BME280;11256;50.830;12.834;2023-05-09T07:42:03;97900.66;;;27.13;31.49
22181;BME280;11256;50.830;12.834;2023-05-09T07:47:04;97894.91;;;27.83;28.34
22181;BME280;11256;50.830;12.834;2023-05-09T07:52:04;97893.56;;;28.13;27.97
22181;BME280;11256;50.830;12.834;2023-05-09T07:57:05;97889.47;;;28.86;28.40
22181;BME280;11256;50.830;12.834;2023-05-09T08:02:05;97873.16;;;28.95;27.83
22181;BME280;11256;50.830;12.834;2023-05-09T08:07:06;97870.47;;;29.54;28.07
22181;BME280;11256;50.830;12.834;2023-05-09T08:12:07;97862.47;;;29.53;24.35
22181;BME280;11256;50.830;12.834;2023-05-09T08:17:07;97862.81;;;30.21;24.19
22181;BME280;11256;50.830;12.834;2023-05-09T08:22:08;97856.59;;;30.65;25.17
22181;BME280;11256;50.830;12.834;2023-05-09T08:27:08;97840.94;;;30.85;25.74
22181;BME280;11256;50.830;12.834;2023-05-09T08:32:09;97851.09;;;30.44;22.64
22181;BME280;11256;50.830;12.834;2023-05-09T08:37:09;97841.84;;;31.26;25.12
22181;BME280;11256;50.830;12.834;2023-05-09T08:42:09;97828.19;;;31.35;25.04
22181;BME280;11256;50.830;12.834;2023-05-09T08:47:10;97829.97;;;31.59;25.18
22181;BME280;11256;50.830;12.834;2023-05-09T08:52:11;97821.09;;;31.16;22.80
22181;BME280;11256;50.830;12.834;2023-05-09T08:57:12;97820.91;;;31.85;23.52
22181;BME280;11256;50.830;12.834;2023-05-09T09:02:15;97823.00;;;31.81;24.21
22181;BME280;11256;50.830;12.834;2023-05-09T09:07:16;97815.06;;;31.25;22.14
22181;BME280;11256;50.830;12.834;2023-05-09T09:12:17;97816.47;;;31.47;22.02
22181;BME280;11256;50.830;12.834;2023-05-09T09:17:24;97807.22;;;31.94;23.00
22181;BME280;11256;50.830;12.834;2023-05-09T09:22:31;97805.81;;;30.70;19.94
22181;BME280;11256;50.830;12.834;2023-05-09T09:27:35;97811.03;;;30.68;20.05
22181;BME280;11256;50.830;12.834;2023-05-09T09:32:36;97809.47;;;31.18;21.38
22181;BME280;11256;50.830;12.834;2023-05-09T09:37:38;97794.16;;;29.82;20.27
22181;BME280;11256;50.830;12.834;2023-05-09T09:42:41;97794.63;;;30.70;21.68
22181;BME280;11256;50.830;12.834;2023-05-09T09:47:43;97784.25;;;30.67;22.20
22181;BME280;11256;50.830;12.834;2023-05-09T09:52:54;97780.22;;;29.40;20.92
22181;BME280;11256;50.830;12.834;2023-05-09T09:57:55;97782.25;;;29.43;22.03
22181;BME280;11256;50.830;12.834;2023-05-09T10:02:56;97772.97;;;28.48;21.77
22181;BME280;11256;50.830;12.834;2023-05-09T10:08:02;97751.94;;;27.14;21.85
22181;BME280;11256;50.830;12.834;2023-05-09T10:13:09;97749.19;;;25.68;23.59
22181;BME280;11256;50.830;12.834;2023-05-09T10:18:10;97747.72;;;25.48;24.25
22181;BME280;11256;50.830;12.834;2023-05-09T10:23:14;97739.44;;;24.32;23.67
22181;BME280;11256;50.830;12.834;2023-05-09T10:28:27;97731.38;;;23.48;24.59
22181;BME280;11256;50.830;12.834;2023-05-09T10:33:34;97725.66;;;23.06;25.02
22181;BME280;11256;50.830;12.834;2023-05-09T10:38:37;97726.22;;;22.96;26.62
22181;BME280;11256;50.830;12.834;2023-05-09T10:43:40;97706.44;;;23.29;25.49
22181;BME280;11256;50.830;12.834;2023-05-09T10:48:42;97692.75;;;23.74;28.33
22181;BME280;11256;50.830;12.834;2023-05-09T10:53:44;97694.44;;;23.59;27.56
22181;BME280;11256;50.830;12.834;2023-05-09T10:58:46;97693.03;;;23.31;26.41
22181;BME280;11256;50.830;12.834;2023-05-09T11:03:57;97682.56;;;22.40;23.96
22181;BME280;11256;50.830;12.834;2023-05-09T11:09:24;97693.03;;;23.31;23.47
22181;BME280;11256;50.830;12.834;2023-05-09T11:24:50;97647.25;;;22.02;22.87
22181;BME280;11256;50.830;12.834;2023-05-09T11:29:56;97656.88;;;21.77;21.94
22181;BME280;11256;50.830;12.834;2023-05-09T11:35:06;97657.31;;;22.88;24.28
22181;BME280;11256;50.830;12.834;2023-05-09T11:40:11;97647.16;;;21.68;24.32
22181;BME280;11256;50.830;12.834;2023-05-09T11:45:13;97643.72;;;21.59;25.46
22181;BME280;11256;50.830;12.834;2023-05-09T11:50:15;97626.69;;;21.69;25.01
22181;BME280;11256;50.830;12.834;2023-05-09T11:55:17;97636.91;;;21.41;24.54
22181;BME280;11256;50.830;12.834;2023-05-09T12:00:21;97627.56;;;21.73;25.98
22181;BME280;11256;50.830;12.834;2023-05-09T12:05:22;97632.63;;;21.71;25.33
22181;BME280;11256;50.830;12.834;2023-05-09T12:10:22;97609.97;;;22.24;25.64
22181;BME280;11256;50.830;12.834;2023-05-09T12:15:23;97610.06;;;21.26;25.81
22181;BME280;11256;50.830;12.834;2023-05-09T12:20:23;97601.91;;;23.19;28.15
22181;BME280;11256;50.830;12.834;2023-05-09T12:25:24;97600.66;;;22.32;26.01
22181;BME280;11256;50.830;12.834;2023-05-09T12:30:26;97594.72;;;22.30;26.66
22181;BME280;11256;50.830;12.834;2023-05-09T12:35:26;97581.56;;;22.92;26.28
22181;BME280;11256;50.830;12.834;2023-05-09T12:40:27;97573.81;;;21.98;27.65
22181;BME280;11256;50.830;12.834;2023-05-09T12:45:27;97559.75;;;21.87;28.76
22181;BME280;11256;50.830;12.834;2023-05-09T12:50:31;97555.25;;;22.45;28.50
22181;BME280;11256;50.830;12.834;2023-05-09T12:55:39;97555.16;;;22.41;30.35
22181;BME280;11256;50.830;12.834;2023-05-09T13:00:44;97543.63;;;21.74;28.31
22181;BME280;11256;50.830;12.834;2023-05-09T13:06:02;97531.47;;;21.47;30.21
22181;BME280;11256;50.830;12.834;2023-05-09T13:11:03;97525.56;;;21.76;30.63
22181;BME280;11256;50.830;12.834;2023-05-09T13:16:07;97520.00;;;22.23;31.05
22181;BME280;11256;50.830;12.834;2023-05-09T13:21:07;97520.19;;;21.37;29.73
22181;BME280;11256;50.830;12.834;2023-05-09T13:26:07;97502.66;;;21.91;31.72
22181;BME280;11256;50.830;12.834;2023-05-09T13:31:08;97502.75;;;21.64;30.07
22181;BME280;11256;50.830;12.834;2023-05-09T13:36:08;97498.53;;;21.23;29.79
22181;BME280;11256;50.830;12.834;2023-05-09T13:41:08;97485.69;;;21.00;30.67
22181;BME280;11256;50.830;12.834;2023-05-09T13:46:09;97478.09;;;21.24;31.04
22181;BME280;11256;50.830;12.834;2023-05-09T13:51:09;97477.25;;;21.24;29.33
22181;BME280;11256;50.830;12.834;2023-05-09T13:56:10;97472.38;;;22.64;32.04
22181;BME280;11256;50.830;12.834;2023-05-09T14:01:11;97476.59;;;22.58;28.28
22181;BME280;11256;50.830;12.834;2023-05-09T14:06:11;97463.16;;;21.56;28.38
22181;BME280;11256;50.830;12.834;2023-05-09T14:11:12;97452.97;;;22.60;28.30
22181;BME280;11256;50.830;12.834;2023-05-09T14:16:13;97442.56;;;24.34;28.53
22181;BME280;11256;50.830;12.834;2023-05-09T14:21:14;97453.72;;;23.18;28.09
22181;BME280;11256;50.830;12.834;2023-05-09T14:26:14;97438.75;;;22.43;27.47
22181;BME280;11256;50.830;12.834;2023-05-09T14:31:15;97435.66;;;23.24;28.46
22181;BME280;11256;50.830;12.834;2023-05-09T14:36:16;97436.03;;;22.62;29.72
22181;BME280;11256;50.830;12.834;2023-05-09T14:41:19;97420.00;;;22.71;28.50
22181;BME280;11256;50.830;12.834;2023-05-09T14:46:19;97421.81;;;22.82;29.24
22181;BME280;11256;50.830;12.834;2023-05-09T14:51:19;97429.22;;;22.97;28.63
22181;BME280;11256;50.830;12.834;2023-05-09T14:56:21;97412.03;;;22.66;30.61
22181;BME280;11256;50.830;12.834;2023-05-09T15:01:21;97413.88;;;23.00;28.34
22181;BME280;11256;50.830;12.834;2023-05-09T15:06:22;97409.91;;;23.20;28.03
22181;BME280;11256;50.830;12.834;2023-05-09T15:11:23;97395.78;;;24.29;28.68
22181;BME280;11256;50.830;12.834;2023-05-09T15:16:23;97392.19;;;23.47;29.06
22181;BME280;11256;50.830;12.834;2023-05-09T15:21:23;97401.34;;;23.51;28.43
22181;BME280;11256;50.830;12.834;2023-05-09T15:26:24;97395.03;;;23.28;28.93
22181;BME280;11256;50.830;12.834;2023-05-09T15:31:25;97386.00;;;22.67;29.96
22181;BME280;11256;50.830;12.834;2023-05-09T15:36:27;97389.22;;;24.11;31.77
22181;BME280;11256;50.830;12.834;2023-05-09T15:41:28;97377.25;;;23.51;29.89
22181;BME280;11256;50.830;12.834;2023-05-09T15:46:28;97384.09;;;23.35;29.39
22181;BME280;11256;50.830;12.834;2023-05-09T15:51:29;97378.44;;;23.50;30.52
22181;BME280;11256;50.830;12.834;2023-05-09T15:56:30;97376.41;;;22.61;30.99
22181;BME280;11256;50.830;12.834;2023-05-09T16:01:30;97366.25;;;22.46;31.98
22181;BME280;11256;50.830;12.834;2023-05-09T16:06:30;97357.63;;;21.44;31.27
22181;BME280;11256;50.830;12.834;2023-05-09T16:11:33;97351.06;;;21.83;32.69
22181;BME280;11256;50.830;12.834;2023-05-09T16:16:34;97348.84;;;21.88;31.70
22181;BME280;11256;50.830;12.834;2023-05-09T16:21:35;97342.50;;;21.88;32.61
22181;BME280;11256;50.830;12.834;2023-05-09T16:26:36;97333.75;;;21.17;32.19
22181;BME280;11256;50.830;12.834;2023-05-09T16:31:37;97324.84;;;20.77;32.60
22181;BME280;11256;50.830;12.834;2023-05-09T16:36:37;97335.53;;;20.94;33.20
22181;BME280;11256;50.830;12.834;2023-05-09T16:41:38;97328.19;;;20.55;33.39
22181;BME280;11256;50.830;12.834;2023-05-09T16:46:38;97309.00;;;20.74;34.52
22181;BME280;11256;50.830;12.834;2023-05-09T16:51:39;97309.75;;;21.02;34.44
22181;BME280;11256;50.830;12.834;2023-05-09T16:56:39;97300.03;;;20.46;34.08
22181;BME280;11256;50.830;12.834;2023-05-09T17:01:41;97297.69;;;20.05;34.50
22181;BME280;11256;50.830;12.834;2023-05-09T17:06:42;97292.78;;;20.26;35.05
22181;BME280;11256;50.830;12.834;2023-05-09T17:11:43;97277.16;;;19.75;35.29
22181;BME280;11256;50.830;12.834;2023-05-09T17:16:43;97274.56;;;19.66;35.77
22181;BME280;11256;50.830;12.834;2023-05-09T17:21:44;97260.28;;;19.49;36.38
22181;BME280;11256;50.830;12.834;2023-05-09T17:26:44;97247.75;;;19.36;37.00
22181;BME280;11256;50.830;12.834;2023-05-09T17:31:44;97239.56;;;19.51;36.97
22181;BME280;11256;50.830;12.834;2023-05-09T17:36:47;97221.47;;;19.78;36.78
22181;BME280;11256;50.830;12.834;2023-05-09T17:41:48;97238.81;;;19.27;37.15
22181;BME280;11256;50.830;12.834;2023-05-09T17:46:49;97234.69;;;19.45;37.50
22181;BME280;11256;50.830;12.834;2023-05-09T17:51:50;97238.06;;;19.54;37.59
22181;BME280;11256;50.830;12.834;2023-05-09T17:56:52;97231.28;;;19.24;37.99
22181;BME280;11256;50.830;12.834;2023-05-09T18:01:55;97223.25;;;19.31;38.28
22181;BME280;11256;50.830;12.834;2023-05-09T18:06:55;97224.56;;;19.49;38.09
22181;BME280;11256;50.830;12.834;2023-05-09T18:11:55;97214.19;;;19.30;38.72
22181;BME280;11256;50.830;12.834;2023-05-09T18:16:56;97213.56;;;18.97;39.16
22181;BME280;11256;50.830;12.834;2023-05-09T18:21:56;97207.59;;;19.07;39.01
22181;BME280;11256;50.830;12.834;2023-05-09T18:26:56;97213.91;;;18.84;39.20
22181;BME280;11256;50.830;12.834;2023-05-09T18:31:57;97203.91;;;19.15;38.80
22181;BME280;11256;50.830;12.834;2023-05-09T18:36:57;97217.13;;;18.62;39.67
22181;BME280;11256;50.830;12.834;2023-05-09T18:41:57;97218.41;;;18.76;39.36
22181;BME280;11256;50.830;12.834;2023-05-09T18:46:58;97202.16;;;18.35;39.72
22181;BME280;11256;50.830;12.834;2023-05-09T18:51:58;97209.75;;;18.30;39.61
22181;BME280;11256;50.830;12.834;2023-05-09T18:56:59;97210.22;;;18.20;40.09
22181;BME280;11256;50.830;12.834;2023-05-09T19:01:59;97204.25;;;18.06;39.20
22181;BME280;11256;50.830;12.834;2023-05-09T19:07:00;97212.50;;;18.18;39.66
22181;BME280;11256;50.830;12.834;2023-05-09T19:12:00;97199.69;;;18.10;40.20
22181;BME280;11256;50.830;12.834;2023-05-09T19:17:03;97189.59;;;17.90;40.41
22181;BME280;11256;50.830;12.834;2023-05-09T19:22:05;97192.41;;;17.69;40.74
22181;BME280;11256;50.830;12.834;2023-05-09T19:27:06;97187.28;;;17.80;40.47
22181;BME280;11256;50.830;12.834;2023-05-09T19:32:06;97201.84;;;17.60;40.77
22181;BME280;11256;50.830;12.834;2023-05-09T19:37:07;97198.81;;;17.53;40.97
22181;BME280;11256;50.830;12.834;2023-05-09T19:42:07;97189.34;;;17.50;40.68
22181;BME280;11256;50.830;12.834;2023-05-09T19:47:08;97190.94;;;17.31;41.30
22181;BME280;11256;50.830;12.834;2023-05-09T19:52:09;97177.53;;;17.38;40.54
22181;BME280;11256;50.830;12.834;2023-05-09T19:57:09;97175.53;;;17.06;41.88
22181;BME280;11256;50.830;12.834;2023-05-09T20:02:12;97168.25;;;17.10;41.30
22181;BME280;11256;50.830;12.834;2023-05-09T20:07:12;97156.47;;;17.30;40.56
22181;BME280;11256;50.830;12.834;2023-05-09T20:12:13;97161.50;;;17.28;40.99
22181;BME280;11256;50.830;12.834;2023-05-09T20:17:13;97161.66;;;17.11;40.81
22181;BME280;11256;50.830;12.834;2023-05-09T20:22:13;97156.03;;;16.87;41.97
22181;BME280;11256;50.830;12.834;2023-05-09T20:27:14;97155.56;;;16.85;41.48
22181;BME280;11256;50.830;12.834;2023-05-09T20:32:14;97152.63;;;16.90;41.29
22181;BME280;11256;50.830;12.834;2023-05-09T20:37:15;97153.63;;;16.85;40.93
22181;BME280;11256;50.830;12.834;2023-05-09T20:42:15;97148.22;;;16.77;41.32
22181;BME280;11256;50.830;12.834;2023-05-09T20:47:16;97144.13;;;16.62;41.88
22181;BME280;11256;50.830;12.834;2023-05-09T20:52:16;97147.69;;;16.63;41.50
22181;BME280;11256;50.830;12.834;2023-05-09T20:57:16;97145.28;;;16.61;41.84
22181;BME280;11256;50.830;12.834;2023-05-09T21:02:17;97127.78;;;16.54;41.98
22181;BME280;11256;50.830;12.834;2023-05-09T21:07:17;97134.03;;;16.25;42.46
22181;BME280;11256;50.830;12.834;2023-05-09T21:12:18;97127.56;;;15.63;44.03
22181;BME280;11256;50.830;12.834;2023-05-09T21:17:18;97115.41;;;15.44;44.90
22181;BME280;11256;50.830;12.834;2023-05-09T21:22:19;97104.72;;;15.68;44.12
22181;BME280;11256;50.830;12.834;2023-05-09T21:27:19;97106.94;;;15.74;43.51
22181;BME280;11256;50.830;12.834;2023-05-09T21:32:20;97097.47;;;15.72;43.34
22181;BME280;11256;50.830;12.834;2023-05-09T21:37:23;97101.59;;;15.40;45.03
22181;BME280;11256;50.830;12.834;2023-05-09T21:42:23;97101.91;;;15.39;44.94
22181;BME280;11256;50.830;12.834;2023-05-09T21:47:24;97108.84;;;15.36;44.42
22181;BME280;11256;50.830;12.834;2023-05-09T21:52:24;97103.34;;;15.45;44.72
22181;BME280;11256;50.830;12.834;2023-05-09T21:57:24;97102.59;;;15.36;44.17
22181;BME280;11256;50.830;12.834;2023-05-09T22:02:25;97107.84;;;15.41;43.79
22181;BME280;11256;50.830;12.834;2023-05-09T22:07:26;97107.22;;;15.44;44.16
22181;BME280;11256;50.830;12.834;2023-05-09T22:12:27;97097.94;;;15.02;45.17
22181;BME280;11256;50.830;12.834;2023-05-09T22:17:27;97090.88;;;15.10;44.69
22181;BME280;11256;50.830;12.834;2023-05-09T22:22:28;97087.06;;;14.77;45.89
22181;BME280;11256;50.830;12.834;2023-05-09T22:27:28;97096.03;;;14.86;45.86
22181;BME280;11256;50.830;12.834;2023-05-09T22:32:29;97074.03;;;14.82;45.07
22181;BME280;11256;50.830;12.834;2023-05-09T22:37:29;97074.88;;;14.66;46.35
22181;BME280;11256;50.830;12.834;2023-05-09T22:42:30;97071.66;;;14.64;46.36
22181;BME280;11256;50.830;12.834;2023-05-09T22:47:30;97073.75;;;14.75;45.50
22181;BME280;11256;50.830;12.834;2023-05-09T22:52:30;97074.88;;;14.66;45.49
22181;BME280;11256;50.830;12.834;2023-05-09T22:57:31;97066.69;;;14.57;45.44
22181;BME280;11256;50.830;12.834;2023-05-09T23:02:31;97067.00;;;14.56;45.98
22181;BME280;11256;50.830;12.834;2023-05-09T23:07:31;97050.97;;;14.29;46.86
22181;BME280;11256;50.830;12.834;2023-05-09T23:12:32;97045.47;;;14.12;47.86
22181;BME280;11256;50.830;12.834;2023-05-09T23:17:32;97044.34;;;14.13;47.45
22181;BME280;11256;50.830;12.834;2023-05-09T23:22:32;97036.13;;;13.96;48.06
22181;BME280;11256;50.830;12.834;2023-05-09T23:27:33;97030.81;;;13.82;48.43
22181;BME280;11256;50.830;12.834;2023-05-09T23:32:33;97030.03;;;13.99;47.23
22181;BME280;11256;50.830;12.834;2023-05-09T23:37:33;97027.28;;;13.82;48.84
22181;BME280;11256;50.830;12.834;2023-05-09T23:42:34;97027.94;;;13.79;48.66
22181;BME280;11256;50.830;12.834;2023-05-09T23:47:34;97017.38;;;13.86;48.06
22181;BME280;11256;50.830;12.834;2023-05-09T23:52:34;97016.38;;;13.82;47.23
22181;BME280;11256;50.830;12.834;2023-05-09T23:57:35;97004.47;;;13.61;48.74
